Terminal Aerodrome Forecast
Issued by NWS

Home | Current Version | Previous Version | Graphics & Text | Print | Product List | Glossary On
Versions: 1 2 3 4 5 6 7 8 9 10 11 12 13 14 15 16 17
000
FTUS43 KGRB 161700
TAFATW
TAF
KATW 161721Z 1618/1718 13013G20KT P6SM VCSH FEW025 OVC050
     FM162000 12017G24KT P6SM BKN080
     FM170400 11013KT P6SM SCT035 OVC060 WS015/17040KT
     FM170800 10012KT P6SM -RASN SCT015 OVC040 WS015/17040KT
      TEMPO 1710/1714 3SM -RASN BR BKN015
     FM171400 16013KT 4SM -RA BR SCT012 OVC025=

USA.gov is the U.S. government's official web portal to all federal, state and local government web resources and services.